sensor_id;sensor_type;location;lat;lon;timestamp;P1;durP1;ratioP1;P2;durP2;ratioP2
8421;SDS011;4248;48.196;10.924;2023-04-07T00:00:27;8.40;;;5.60;;
8421;SDS011;4248;48.196;10.924;2023-04-07T00:02:53;10.50;;;6.17;;
8421;SDS011;4248;48.196;10.924;2023-04-07T00:05:19;14.83;;;5.10;;
8421;SDS011;4248;48.196;10.924;2023-04-07T00:07:45;9.87;;;4.87;;
8421;SDS011;4248;48.196;10.924;2023-04-07T00:10:11;8.53;;;4.50;;
8421;SDS011;4248;48.196;10.924;2023-04-07T00:12:36;8.50;;;4.70;;
8421;SDS011;4248;48.196;10.924;2023-04-07T00:15:02;9.77;;;5.10;;
8421;SDS011;4248;48.196;10.924;2023-04-07T00:17:27;7.97;;;4.83;;
8421;SDS011;4248;48.196;10.924;2023-04-07T00:19:53;10.80;;;5.20;;
8421;SDS011;4248;48.196;10.924;2023-04-07T00:22:19;6.17;;;3.87;;
8421;SDS011;4248;48.196;10.924;2023-04-07T00:24:44;6.63;;;4.13;;
8421;SDS011;4248;48.196;10.924;2023-04-07T00:27:10;6.70;;;4.27;;
8421;SDS011;4248;48.196;10.924;2023-04-07T00:29:35;6.63;;;3.77;;
8421;SDS011;4248;48.196;10.924;2023-04-07T00:32:01;9.90;;;3.50;;
8421;SDS011;4248;48.196;10.924;2023-04-07T00:34:27;5.60;;;3.10;;
8421;SDS011;4248;48.196;10.924;2023-04-07T00:36:52;6.03;;;3.00;;
8421;SDS011;4248;48.196;10.924;2023-04-07T00:39:18;7.80;;;2.90;;
8421;SDS011;4248;48.196;10.924;2023-04-07T00:41:44;6.00;;;2.53;;
8421;SDS011;4248;48.196;10.924;2023-04-07T00:44:10;4.17;;;2.60;;
8421;SDS011;4248;48.196;10.924;2023-04-07T00:46:36;4.47;;;2.70;;
8421;SDS011;4248;48.196;10.924;2023-04-07T00:49:02;8.83;;;2.23;;
8421;SDS011;4248;48.196;10.924;2023-04-07T00:51:28;5.90;;;2.60;;
8421;SDS011;4248;48.196;10.924;2023-04-07T00:53:54;3.67;;;2.40;;
8421;SDS011;4248;48.196;10.924;2023-04-07T00:56:20;5.43;;;3.00;;
8421;SDS011;4248;48.196;10.924;2023-04-07T00:58:45;4.40;;;3.00;;
8421;SDS011;4248;48.196;10.924;2023-04-07T01:01:15;3.50;;;2.10;;
8421;SDS011;4248;48.196;10.924;2023-04-07T01:03:56;5.53;;;2.73;;
8421;SDS011;4248;48.196;10.924;2023-04-07T01:06:29;4.90;;;2.83;;
8421;SDS011;4248;48.196;10.924;2023-04-07T01:09:18;6.33;;;3.17;;
8421;SDS011;4248;48.196;10.924;2023-04-07T01:14:54;9.50;;;2.30;;
8421;SDS011;4248;48.196;10.924;2023-04-07T01:17:24;3.80;;;2.40;;
8421;SDS011;4248;48.196;10.924;2023-04-07T01:19:52;4.50;;;2.40;;
8421;SDS011;4248;48.196;10.924;2023-04-07T01:22:25;4.17;;;2.23;;
8421;SDS011;4248;48.196;10.924;2023-04-07T01:30:26;4.90;;;2.50;;
8421;SDS011;4248;48.196;10.924;2023-04-07T01:32:55;4.17;;;2.20;;
8421;SDS011;4248;48.196;10.924;2023-04-07T01:35:23;4.70;;;2.70;;
8421;SDS011;4248;48.196;10.924;2023-04-07T01:37:56;4.77;;;3.00;;
8421;SDS011;4248;48.196;10.924;2023-04-07T01:40:24;9.03;;;2.73;;
8421;SDS011;4248;48.196;10.924;2023-04-07T01:42:51;5.87;;;3.30;;
8421;SDS011;4248;48.196;10.924;2023-04-07T01:45:17;4.90;;;2.63;;
8421;SDS011;4248;48.196;10.924;2023-04-07T01:47:44;5.00;;;2.87;;
8421;SDS011;4248;48.196;10.924;2023-04-07T01:50:10;5.60;;;3.20;;
8421;SDS011;4248;48.196;10.924;2023-04-07T01:52:36;4.23;;;2.60;;
8421;SDS011;4248;48.196;10.924;2023-04-07T01:55:04;4.63;;;2.80;;
8421;SDS011;4248;48.196;10.924;2023-04-07T01:57:30;5.50;;;3.40;;
8421;SDS011;4248;48.196;10.924;2023-04-07T01:59:56;10.53;;;2.80;;
8421;SDS011;4248;48.196;10.924;2023-04-07T02:02:22;5.73;;;3.17;;
8421;SDS011;4248;48.196;10.924;2023-04-07T02:04:52;5.37;;;2.90;;
8421;SDS011;4248;48.196;10.924;2023-04-07T02:07:30;4.07;;;2.67;;
8421;SDS011;4248;48.196;10.924;2023-04-07T02:10:04;5.10;;;3.00;;
8421;SDS011;4248;48.196;10.924;2023-04-07T02:12:32;7.33;;;3.20;;
8421;SDS011;4248;48.196;10.924;2023-04-07T02:15:01;7.47;;;3.70;;
8421;SDS011;4248;48.196;10.924;2023-04-07T02:17:29;7.03;;;4.10;;
8421;SDS011;4248;48.196;10.924;2023-04-07T02:19:58;5.43;;;3.43;;
8421;SDS011;4248;48.196;10.924;2023-04-07T02:22:26;7.90;;;3.97;;
8421;SDS011;4248;48.196;10.924;2023-04-07T02:24:52;6.33;;;3.50;;
8421;SDS011;4248;48.196;10.924;2023-04-07T02:27:18;6.10;;;3.30;;
8421;SDS011;4248;48.196;10.924;2023-04-07T02:29:44;5.73;;;3.23;;
8421;SDS011;4248;48.196;10.924;2023-04-07T02:32:10;7.83;;;3.50;;
8421;SDS011;4248;48.196;10.924;2023-04-07T02:34:35;6.10;;;3.83;;
8421;SDS011;4248;48.196;10.924;2023-04-07T02:37:01;7.40;;;3.73;;
8421;SDS011;4248;48.196;10.924;2023-04-07T02:39:27;4.97;;;3.20;;
8421;SDS011;4248;48.196;10.924;2023-04-07T02:41:52;9.47;;;4.00;;
8421;SDS011;4248;48.196;10.924;2023-04-07T02:44:18;5.93;;;3.20;;
8421;SDS011;4248;48.196;10.924;2023-04-07T02:46:43;6.73;;;3.77;;
8421;SDS011;4248;48.196;10.924;2023-04-07T02:49:09;9.50;;;3.87;;
8421;SDS011;4248;48.196;10.924;2023-04-07T02:51:35;6.93;;;3.70;;
8421;SDS011;4248;48.196;10.924;2023-04-07T02:54:00;6.90;;;3.53;;
8421;SDS011;4248;48.196;10.924;2023-04-07T02:56:26;7.70;;;3.40;;
8421;SDS011;4248;48.196;10.924;2023-04-07T02:58:51;5.40;;;3.00;;
8421;SDS011;4248;48.196;10.924;2023-04-07T03:01:17;7.53;;;3.93;;
8421;SDS011;4248;48.196;10.924;2023-04-07T03:03:43;4.27;;;3.23;;
8421;SDS011;4248;48.196;10.924;2023-04-07T03:06:08;4.80;;;3.20;;
8421;SDS011;4248;48.196;10.924;2023-04-07T03:08:34;7.40;;;3.53;;
8421;SDS011;4248;48.196;10.924;2023-04-07T03:11:00;6.87;;;4.23;;
8421;SDS011;4248;48.196;10.924;2023-04-07T03:13:26;6.70;;;4.20;;
8421;SDS011;4248;48.196;10.924;2023-04-07T03:15:53;7.20;;;4.00;;
8421;SDS011;4248;48.196;10.924;2023-04-07T03:18:19;9.50;;;3.90;;
8421;SDS011;4248;48.196;10.924;2023-04-07T03:20:46;6.60;;;3.80;;
8421;SDS011;4248;48.196;10.924;2023-04-07T03:23:12;6.13;;;4.00;;
8421;SDS011;4248;48.196;10.924;2023-04-07T03:25:38;6.30;;;3.77;;
8421;SDS011;4248;48.196;10.924;2023-04-07T03:28:04;6.73;;;3.90;;
8421;SDS011;4248;48.196;10.924;2023-04-07T03:30:30;8.43;;;4.13;;
8421;SDS011;4248;48.196;10.924;2023-04-07T03:32:56;6.93;;;4.00;;
8421;SDS011;4248;48.196;10.924;2023-04-07T03:35:21;5.97;;;3.77;;
8421;SDS011;4248;48.196;10.924;2023-04-07T03:37:47;6.13;;;3.40;;
8421;SDS011;4248;48.196;10.924;2023-04-07T03:40:12;7.00;;;3.50;;
8421;SDS011;4248;48.196;10.924;2023-04-07T03:42:38;5.90;;;3.77;;
8421;SDS011;4248;48.196;10.924;2023-04-07T03:45:04;5.83;;;3.80;;
8421;SDS011;4248;48.196;10.924;2023-04-07T03:47:30;5.40;;;3.50;;
8421;SDS011;4248;48.196;10.924;2023-04-07T03:49:55;5.80;;;4.10;;
8421;SDS011;4248;48.196;10.924;2023-04-07T03:52:21;6.77;;;4.10;;
8421;SDS011;4248;48.196;10.924;2023-04-07T03:54:47;7.80;;;4.50;;
8421;SDS011;4248;48.196;10.924;2023-04-07T03:57:12;6.20;;;4.20;;
8421;SDS011;4248;48.196;10.924;2023-04-07T03:59:38;7.70;;;4.70;;
8421;SDS011;4248;48.196;10.924;2023-04-07T04:02:03;8.77;;;3.97;;
8421;SDS011;4248;48.196;10.924;2023-04-07T04:04:29;7.50;;;4.30;;
8421;SDS011;4248;48.196;10.924;2023-04-07T04:06:55;6.40;;;4.13;;
8421;SDS011;4248;48.196;10.924;2023-04-07T04:09:21;5.50;;;3.60;;
8421;SDS011;4248;48.196;10.924;2023-04-07T04:11:47;5.90;;;3.60;;
8421;SDS011;4248;48.196;10.924;2023-04-07T04:14:13;7.27;;;4.00;;
8421;SDS011;4248;48.196;10.924;2023-04-07T04:16:38;8.00;;;4.80;;
8421;SDS011;4248;48.196;10.924;2023-04-07T04:19:04;6.43;;;4.00;;
8421;SDS011;4248;48.196;10.924;2023-04-07T04:21:29;7.83;;;4.80;;
8421;SDS011;4248;48.196;10.924;2023-04-07T04:23:56;6.50;;;3.90;;
8421;SDS011;4248;48.196;10.924;2023-04-07T04:26:21;7.30;;;4.23;;
8421;SDS011;4248;48.196;10.924;2023-04-07T04:28:49;9.30;;;4.53;;
8421;SDS011;4248;48.196;10.924;2023-04-07T04:31:16;5.57;;;4.10;;
8421;SDS011;4248;48.196;10.924;2023-04-07T04:33:41;6.67;;;4.40;;
8421;SDS011;4248;48.196;10.924;2023-04-07T04:36:07;8.17;;;5.37;;
8421;SDS011;4248;48.196;10.924;2023-04-07T04:38:32;8.50;;;5.40;;
8421;SDS011;4248;48.196;10.924;2023-04-07T04:40:58;8.70;;;5.23;;
8421;SDS011;4248;48.196;10.924;2023-04-07T04:43:24;8.97;;;5.20;;
8421;SDS011;4248;48.196;10.924;2023-04-07T04:45:49;9.00;;;5.30;;
8421;SDS011;4248;48.196;10.924;2023-04-07T04:48:15;11.17;;;5.60;;
8421;SDS011;4248;48.196;10.924;2023-04-07T04:50:41;11.40;;;5.80;;
8421;SDS011;4248;48.196;10.924;2023-04-07T04:53:07;7.43;;;5.37;;
8421;SDS011;4248;48.196;10.924;2023-04-07T04:55:34;8.87;;;5.03;;
8421;SDS011;4248;48.196;10.924;2023-04-07T04:58:00;6.93;;;5.00;;
8421;SDS011;4248;48.196;10.924;2023-04-07T05:00:26;7.87;;;5.30;;
8421;SDS011;4248;48.196;10.924;2023-04-07T05:02:52;9.60;;;5.13;;
8421;SDS011;4248;48.196;10.924;2023-04-07T05:05:17;8.73;;;5.07;;
8421;SDS011;4248;48.196;10.924;2023-04-07T05:07:43;11.30;;;6.20;;
8421;SDS011;4248;48.196;10.924;2023-04-07T05:10:08;10.10;;;6.10;;
8421;SDS011;4248;48.196;10.924;2023-04-07T05:12:34;7.60;;;5.13;;
8421;SDS011;4248;48.196;10.924;2023-04-07T05:15:00;8.83;;;5.27;;
8421;SDS011;4248;48.196;10.924;2023-04-07T05:17:26;8.63;;;5.53;;
8421;SDS011;4248;48.196;10.924;2023-04-07T05:19:51;9.83;;;5.50;;
8421;SDS011;4248;48.196;10.924;2023-04-07T05:22:17;9.17;;;5.53;;
8421;SDS011;4248;48.196;10.924;2023-04-07T05:24:43;10.20;;;6.80;;
8421;SDS011;4248;48.196;10.924;2023-04-07T05:27:08;11.77;;;6.20;;
8421;SDS011;4248;48.196;10.924;2023-04-07T05:29:34;7.33;;;4.70;;
8421;SDS011;4248;48.196;10.924;2023-04-07T05:32:00;10.10;;;5.73;;
8421;SDS011;4248;48.196;10.924;2023-04-07T05:34:26;9.13;;;5.70;;
8421;SDS011;4248;48.196;10.924;2023-04-07T05:36:52;9.83;;;5.70;;
8421;SDS011;4248;48.196;10.924;2023-04-07T05:39:17;9.30;;;5.67;;
8421;SDS011;4248;48.196;10.924;2023-04-07T05:41:43;10.80;;;7.07;;
8421;SDS011;4248;48.196;10.924;2023-04-07T05:44:09;15.33;;;6.37;;
8421;SDS011;4248;48.196;10.924;2023-04-07T05:46:34;10.83;;;6.07;;
8421;SDS011;4248;48.196;10.924;2023-04-07T05:49:00;13.77;;;5.90;;
8421;SDS011;4248;48.196;10.924;2023-04-07T05:51:26;9.50;;;6.00;;
8421;SDS011;4248;48.196;10.924;2023-04-07T05:53:51;13.23;;;6.37;;
8421;SDS011;4248;48.196;10.924;2023-04-07T05:56:17;9.20;;;5.73;;
8421;SDS011;4248;48.196;10.924;2023-04-07T05:58:43;10.90;;;6.60;;
8421;SDS011;4248;48.196;10.924;2023-04-07T06:01:08;9.23;;;5.87;;
8421;SDS011;4248;48.196;10.924;2023-04-07T06:03:34;11.30;;;6.07;;
8421;SDS011;4248;48.196;10.924;2023-04-07T06:06:00;11.03;;;6.17;;
8421;SDS011;4248;48.196;10.924;2023-04-07T06:08:25;9.10;;;6.67;;
8421;SDS011;4248;48.196;10.924;2023-04-07T06:10:51;10.67;;;5.90;;
8421;SDS011;4248;48.196;10.924;2023-04-07T06:13:16;9.27;;;5.73;;
8421;SDS011;4248;48.196;10.924;2023-04-07T06:15:42;11.53;;;6.30;;
8421;SDS011;4248;48.196;10.924;2023-04-07T06:18:08;11.17;;;7.30;;
8421;SDS011;4248;48.196;10.924;2023-04-07T06:20:33;10.10;;;7.07;;
8421;SDS011;4248;48.196;10.924;2023-04-07T06:22:59;12.23;;;6.67;;
8421;SDS011;4248;48.196;10.924;2023-04-07T06:25:25;13.20;;;5.60;;
8421;SDS011;4248;48.196;10.924;2023-04-07T06:27:52;10.93;;;6.43;;
8421;SDS011;4248;48.196;10.924;2023-04-07T06:30:18;11.67;;;6.67;;
8421;SDS011;4248;48.196;10.924;2023-04-07T06:32:43;9.77;;;6.60;;
8421;SDS011;4248;48.196;10.924;2023-04-07T06:35:09;12.20;;;7.70;;
8421;SDS011;4248;48.196;10.924;2023-04-07T06:37:35;10.30;;;6.87;;
8421;SDS011;4248;48.196;10.924;2023-04-07T06:40:00;14.43;;;6.67;;
8421;SDS011;4248;48.196;10.924;2023-04-07T06:42:26;11.80;;;6.60;;
8421;SDS011;4248;48.196;10.924;2023-04-07T06:44:52;11.73;;;7.13;;
8421;SDS011;4248;48.196;10.924;2023-04-07T06:47:17;13.60;;;7.63;;
8421;SDS011;4248;48.196;10.924;2023-04-07T06:49:43;10.43;;;7.40;;
8421;SDS011;4248;48.196;10.924;2023-04-07T06:52:08;9.87;;;6.30;;
8421;SDS011;4248;48.196;10.924;2023-04-07T06:54:34;9.93;;;6.07;;
8421;SDS011;4248;48.196;10.924;2023-04-07T06:57:00;10.90;;;6.37;;
8421;SDS011;4248;48.196;10.924;2023-04-07T06:59:26;10.23;;;6.53;;
8421;SDS011;4248;48.196;10.924;2023-04-07T07:01:51;9.30;;;6.80;;
8421;SDS011;4248;48.196;10.924;2023-04-07T07:04:17;10.77;;;6.73;;
8421;SDS011;4248;48.196;10.924;2023-04-07T07:06:42;10.50;;;6.63;;
8421;SDS011;4248;48.196;10.924;2023-04-07T07:09:08;8.93;;;6.23;;
8421;SDS011;4248;48.196;10.924;2023-04-07T07:11:34;10.40;;;6.37;;
8421;SDS011;4248;48.196;10.924;2023-04-07T07:13:59;11.20;;;6.53;;
8421;SDS011;4248;48.196;10.924;2023-04-07T07:16:25;9.77;;;6.10;;
8421;SDS011;4248;48.196;10.924;2023-04-07T07:18:51;12.00;;;7.30;;
8421;SDS011;4248;48.196;10.924;2023-04-07T07:21:17;13.23;;;7.97;;
8421;SDS011;4248;48.196;10.924;2023-04-07T07:23:43;15.20;;;7.80;;
8421;SDS011;4248;48.196;10.924;2023-04-07T07:26:08;12.50;;;6.53;;
8421;SDS011;4248;48.196;10.924;2023-04-07T07:28:34;10.57;;;6.60;;
8421;SDS011;4248;48.196;10.924;2023-04-07T07:31:00;13.20;;;7.57;;
8421;SDS011;4248;48.196;10.924;2023-04-07T07:33:32;11.33;;;6.90;;
8421;SDS011;4248;48.196;10.924;2023-04-07T07:35:58;11.00;;;6.30;;
8421;SDS011;4248;48.196;10.924;2023-04-07T07:38:24;14.30;;;7.23;;
8421;SDS011;4248;48.196;10.924;2023-04-07T07:40:51;12.97;;;7.50;;
8421;SDS011;4248;48.196;10.924;2023-04-07T07:43:17;11.27;;;6.43;;
8421;SDS011;4248;48.196;10.924;2023-04-07T07:45:42;11.73;;;6.50;;
8421;SDS011;4248;48.196;10.924;2023-04-07T07:48:08;12.47;;;7.07;;
8421;SDS011;4248;48.196;10.924;2023-04-07T07:50:34;9.80;;;6.30;;
8421;SDS011;4248;48.196;10.924;2023-04-07T07:53:00;10.40;;;6.30;;
8421;SDS011;4248;48.196;10.924;2023-04-07T07:55:26;10.17;;;5.90;;
8421;SDS011;4248;48.196;10.924;2023-04-07T07:57:51;12.00;;;6.90;;
8421;SDS011;4248;48.196;10.924;2023-04-07T08:00:17;13.90;;;7.80;;
8421;SDS011;4248;48.196;10.924;2023-04-07T08:02:43;9.83;;;5.93;;
8421;SDS011;4248;48.196;10.924;2023-04-07T08:05:09;9.73;;;6.80;;
8421;SDS011;4248;48.196;10.924;2023-04-07T08:07:35;10.27;;;6.47;;
8421;SDS011;4248;48.196;10.924;2023-04-07T08:10:01;9.80;;;6.13;;
8421;SDS011;4248;48.196;10.924;2023-04-07T08:12:27;10.20;;;5.70;;
8421;SDS011;4248;48.196;10.924;2023-04-07T08:14:52;9.80;;;5.40;;
8421;SDS011;4248;48.196;10.924;2023-04-07T08:17:18;9.03;;;5.47;;
8421;SDS011;4248;48.196;10.924;2023-04-07T08:19:43;10.60;;;5.80;;
8421;SDS011;4248;48.196;10.924;2023-04-07T08:22:10;7.60;;;5.20;;
8421;SDS011;4248;48.196;10.924;2023-04-07T08:24:35;8.93;;;5.60;;
8421;SDS011;4248;48.196;10.924;2023-04-07T08:27:01;9.20;;;6.10;;
8421;SDS011;4248;48.196;10.924;2023-04-07T08:29:26;11.07;;;6.03;;
8421;SDS011;4248;48.196;10.924;2023-04-07T08:31:52;12.17;;;6.90;;
8421;SDS011;4248;48.196;10.924;2023-04-07T08:34:18;10.13;;;5.93;;
8421;SDS011;4248;48.196;10.924;2023-04-07T08:36:45;10.03;;;5.90;;
8421;SDS011;4248;48.196;10.924;2023-04-07T08:39:11;9.93;;;5.70;;
8421;SDS011;4248;48.196;10.924;2023-04-07T08:41:37;7.97;;;5.20;;
8421;SDS011;4248;48.196;10.924;2023-04-07T08:44:04;8.83;;;5.77;;
8421;SDS011;4248;48.196;10.924;2023-04-07T08:46:32;8.93;;;5.03;;
8421;SDS011;4248;48.196;10.924;2023-04-07T08:48:58;9.60;;;5.33;;
8421;SDS011;4248;48.196;10.924;2023-04-07T08:51:29;10.20;;;5.53;;
8421;SDS011;4248;48.196;10.924;2023-04-07T08:54:07;9.03;;;6.07;;
8421;SDS011;4248;48.196;10.924;2023-04-07T08:56:38;14.67;;;5.30;;
8421;SDS011;4248;48.196;10.924;2023-04-07T08:59:05;6.57;;;4.60;;
8421;SDS011;4248;48.196;10.924;2023-04-07T09:01:33;12.23;;;5.10;;
8421;SDS011;4248;48.196;10.924;2023-04-07T09:04:01;7.90;;;5.60;;
8421;SDS011;4248;48.196;10.924;2023-04-07T09:06:30;8.77;;;5.77;;
8421;SDS011;4248;48.196;10.924;2023-04-07T09:08:57;9.43;;;5.17;;
8421;SDS011;4248;48.196;10.924;2023-04-07T09:11:23;8.73;;;5.37;;
8421;SDS011;4248;48.196;10.924;2023-04-07T09:13:50;8.73;;;5.40;;
8421;SDS011;4248;48.196;10.924;2023-04-07T09:16:15;7.20;;;5.20;;
8421;SDS011;4248;48.196;10.924;2023-04-07T09:18:41;9.43;;;5.20;;
8421;SDS011;4248;48.196;10.924;2023-04-07T09:21:07;9.37;;;4.70;;
8421;SDS011;4248;48.196;10.924;2023-04-07T09:23:39;7.10;;;5.10;;
8421;SDS011;4248;48.196;10.924;2023-04-07T09:26:22;9.03;;;5.00;;
8421;SDS011;4248;48.196;10.924;2023-04-07T09:28:53;8.33;;;5.43;;
8421;SDS011;4248;48.196;10.924;2023-04-07T09:31:20;6.93;;;5.00;;
8421;SDS011;4248;48.196;10.924;2023-04-07T09:33:50;7.20;;;4.80;;
8421;SDS011;4248;48.196;10.924;2023-04-07T09:36:16;8.30;;;4.77;;
8421;SDS011;4248;48.196;10.924;2023-04-07T09:38:43;7.10;;;4.70;;
8421;SDS011;4248;48.196;10.924;2023-04-07T09:41:10;11.27;;;4.80;;
8421;SDS011;4248;48.196;10.924;2023-04-07T09:43:43;11.53;;;4.77;;
8421;SDS011;4248;48.196;10.924;2023-04-07T09:46:13;6.97;;;5.17;;
8421;SDS011;4248;48.196;10.924;2023-04-07T09:48:41;9.37;;;4.90;;
8421;SDS011;4248;48.196;10.924;2023-04-07T09:51:13;9.20;;;5.23;;
8421;SDS011;4248;48.196;10.924;2023-04-07T09:56:17;8.83;;;5.50;;
8421;SDS011;4248;48.196;10.924;2023-04-07T09:58:44;7.50;;;4.60;;
8421;SDS011;4248;48.196;10.924;2023-04-07T10:01:11;8.20;;;6.00;;
8421;SDS011;4248;48.196;10.924;2023-04-07T10:03:38;6.83;;;4.83;;
8421;SDS011;4248;48.196;10.924;2023-04-07T10:06:04;8.03;;;4.90;;
8421;SDS011;4248;48.196;10.924;2023-04-07T10:08:31;9.33;;;5.00;;
8421;SDS011;4248;48.196;10.924;2023-04-07T10:11:03;8.97;;;4.97;;
8421;SDS011;4248;48.196;10.924;2023-04-07T10:13:30;7.20;;;5.00;;
8421;SDS011;4248;48.196;10.924;2023-04-07T10:15:58;8.07;;;5.40;;
8421;SDS011;4248;48.196;10.924;2023-04-07T10:18:25;9.33;;;5.17;;
8421;SDS011;4248;48.196;10.924;2023-04-07T10:20:56;6.23;;;4.60;;
8421;SDS011;4248;48.196;10.924;2023-04-07T10:26:14;8.10;;;4.90;;
8421;SDS011;4248;48.196;10.924;2023-04-07T10:28:48;8.47;;;5.10;;
8421;SDS011;4248;48.196;10.924;2023-04-07T10:31:19;9.40;;;5.47;;
8421;SDS011;4248;48.196;10.924;2023-04-07T10:33:48;11.40;;;5.20;;
8421;SDS011;4248;48.196;10.924;2023-04-07T10:36:14;8.47;;;5.63;;
8421;SDS011;4248;48.196;10.924;2023-04-07T10:38:41;13.20;;;5.50;;
8421;SDS011;4248;48.196;10.924;2023-04-07T10:44:02;8.13;;;5.33;;
8421;SDS011;4248;48.196;10.924;2023-04-07T10:47:14;10.50;;;6.40;;
8421;SDS011;4248;48.196;10.924;2023-04-07T10:49:21;11.60;;;6.30;;
8421;SDS011;4248;48.196;10.924;2023-04-07T10:52:20;12.13;;;5.50;;
8421;SDS011;4248;48.196;10.924;2023-04-07T10:54:38;12.10;;;6.10;;
8421;SDS011;4248;48.196;10.924;2023-04-07T10:59:32;9.27;;;5.30;;
8421;SDS011;4248;48.196;10.924;2023-04-07T11:04:44;9.57;;;5.80;;
8421;SDS011;4248;48.196;10.924;2023-04-07T11:07:11;8.43;;;6.27;;
8421;SDS011;4248;48.196;10.924;2023-04-07T11:09:37;7.60;;;4.90;;
8421;SDS011;4248;48.196;10.924;2023-04-07T11:12:04;10.13;;;5.77;;
8421;SDS011;4248;48.196;10.924;2023-04-07T11:14:30;9.27;;;5.73;;
8421;SDS011;4248;48.196;10.924;2023-04-07T11:16:58;8.57;;;5.13;;
8421;SDS011;4248;48.196;10.924;2023-04-07T11:19:25;10.20;;;5.60;;
8421;SDS011;4248;48.196;10.924;2023-04-07T11:22:12;8.60;;;5.70;;
8421;SDS011;4248;48.196;10.924;2023-04-07T11:24:40;10.00;;;5.97;;
8421;SDS011;4248;48.196;10.924;2023-04-07T11:27:13;8.90;;;5.47;;
8421;SDS011;4248;48.196;10.924;2023-04-07T11:29:39;8.00;;;5.30;;
8421;SDS011;4248;48.196;10.924;2023-04-07T11:32:05;10.23;;;5.50;;
8421;SDS011;4248;48.196;10.924;2023-04-07T11:34:31;8.60;;;5.53;;
8421;SDS011;4248;48.196;10.924;2023-04-07T11:36:59;8.90;;;5.50;;
8421;SDS011;4248;48.196;10.924;2023-04-07T11:39:53;9.53;;;5.70;;
8421;SDS011;4248;48.196;10.924;2023-04-07T11:42:35;8.07;;;5.33;;
8421;SDS011;4248;48.196;10.924;2023-04-07T11:45:02;8.40;;;4.87;;
8421;SDS011;4248;48.196;10.924;2023-04-07T11:47:38;10.37;;;5.53;;
8421;SDS011;4248;48.196;10.924;2023-04-07T11:50:04;8.03;;;5.60;;
8421;SDS011;4248;48.196;10.924;2023-04-07T11:55:26;8.23;;;5.40;;
8421;SDS011;4248;48.196;10.924;2023-04-07T11:57:53;8.60;;;5.03;;
8421;SDS011;4248;48.196;10.924;2023-04-07T12:00:19;8.63;;;5.30;;
8421;SDS011;4248;48.196;10.924;2023-04-07T12:02:45;8.10;;;5.30;;
8421;SDS011;4248;48.196;10.924;2023-04-07T12:05:10;9.90;;;4.70;;
8421;SDS011;4248;48.196;10.924;2023-04-07T12:07:37;9.67;;;4.73;;
8421;SDS011;4248;48.196;10.924;2023-04-07T12:12:45;8.20;;;4.33;;
8421;SDS011;4248;48.196;10.924;2023-04-07T12:15:11;7.47;;;4.90;;
8421;SDS011;4248;48.196;10.924;2023-04-07T12:17:44;10.17;;;4.70;;
8421;SDS011;4248;48.196;10.924;2023-04-07T12:20:11;10.10;;;5.17;;
8421;SDS011;4248;48.196;10.924;2023-04-07T12:22:37;6.70;;;4.77;;
8421;SDS011;4248;48.196;10.924;2023-04-07T12:25:03;10.90;;;4.87;;
8421;SDS011;4248;48.196;10.924;2023-04-07T12:27:29;10.37;;;5.27;;
8421;SDS011;4248;48.196;10.924;2023-04-07T12:29:55;8.53;;;4.37;;
8421;SDS011;4248;48.196;10.924;2023-04-07T12:32:21;7.33;;;4.73;;
8421;SDS011;4248;48.196;10.924;2023-04-07T12:34:46;7.40;;;4.50;;
8421;SDS011;4248;48.196;10.924;2023-04-07T12:37:12;9.80;;;4.80;;
8421;SDS011;4248;48.196;10.924;2023-04-07T12:39:38;8.40;;;5.57;;
8421;SDS011;4248;48.196;10.924;2023-04-07T12:42:03;8.53;;;5.07;;
8421;SDS011;4248;48.196;10.924;2023-04-07T12:44:29;8.30;;;5.40;;
8421;SDS011;4248;48.196;10.924;2023-04-07T12:46:55;10.10;;;5.83;;
8421;SDS011;4248;48.196;10.924;2023-04-07T12:49:21;9.03;;;5.70;;
8421;SDS011;4248;48.196;10.924;2023-04-07T12:51:46;11.30;;;5.60;;
8421;SDS011;4248;48.196;10.924;2023-04-07T12:54:12;8.30;;;5.40;;
8421;SDS011;4248;48.196;10.924;2023-04-07T12:56:39;7.90;;;5.63;;
8421;SDS011;4248;48.196;10.924;2023-04-07T12:59:06;7.27;;;4.93;;
8421;SDS011;4248;48.196;10.924;2023-04-07T13:01:32;11.27;;;6.07;;
8421;SDS011;4248;48.196;10.924;2023-04-07T13:03:59;17.97;;;6.07;;
8421;SDS011;4248;48.196;10.924;2023-04-07T13:06:25;10.00;;;5.30;;
8421;SDS011;4248;48.196;10.924;2023-04-07T13:08:51;8.07;;;6.00;;
8421;SDS011;4248;48.196;10.924;2023-04-07T13:11:17;9.17;;;6.40;;
8421;SDS011;4248;48.196;10.924;2023-04-07T13:13:42;13.10;;;6.70;;
8421;SDS011;4248;48.196;10.924;2023-04-07T13:16:08;9.30;;;6.80;;
8421;SDS011;4248;48.196;10.924;2023-04-07T13:18:34;10.20;;;5.90;;
8421;SDS011;4248;48.196;10.924;2023-04-07T13:21:00;9.93;;;6.20;;
8421;SDS011;4248;48.196;10.924;2023-04-07T13:23:26;9.57;;;5.47;;
8421;SDS011;4248;48.196;10.924;2023-04-07T13:25:52;8.10;;;5.40;;
8421;SDS011;4248;48.196;10.924;2023-04-07T13:28:17;7.27;;;4.60;;
8421;SDS011;4248;48.196;10.924;2023-04-07T13:30:45;8.47;;;4.93;;
8421;SDS011;4248;48.196;10.924;2023-04-07T13:33:11;8.40;;;5.40;;
8421;SDS011;4248;48.196;10.924;2023-04-07T13:35:37;6.07;;;3.60;;
8421;SDS011;4248;48.196;10.924;2023-04-07T13:38:03;5.80;;;3.63;;
8421;SDS011;4248;48.196;10.924;2023-04-07T13:40:28;6.37;;;3.97;;
8421;SDS011;4248;48.196;10.924;2023-04-07T13:42:54;8.50;;;3.93;;
8421;SDS011;4248;48.196;10.924;2023-04-07T13:45:21;7.63;;;4.43;;
8421;SDS011;4248;48.196;10.924;2023-04-07T13:47:47;9.63;;;4.10;;
8421;SDS011;4248;48.196;10.924;2023-04-07T13:50:13;9.43;;;4.77;;
8421;SDS011;4248;48.196;10.924;2023-04-07T13:52:38;7.93;;;4.37;;
8421;SDS011;4248;48.196;10.924;2023-04-07T13:55:04;8.57;;;4.83;;
8421;SDS011;4248;48.196;10.924;2023-04-07T13:57:30;7.23;;;4.53;;
8421;SDS011;4248;48.196;10.924;2023-04-07T13:59:56;7.60;;;4.70;;
8421;SDS011;4248;48.196;10.924;2023-04-07T14:02:21;6.00;;;4.20;;
8421;SDS011;4248;48.196;10.924;2023-04-07T14:04:48;7.73;;;4.20;;
8421;SDS011;4248;48.196;10.924;2023-04-07T14:07:14;5.70;;;3.90;;
8421;SDS011;4248;48.196;10.924;2023-04-07T14:09:40;7.67;;;4.03;;
8421;SDS011;4248;48.196;10.924;2023-04-07T14:12:06;8.23;;;3.70;;
8421;SDS011;4248;48.196;10.924;2023-04-07T14:14:32;5.33;;;3.50;;
8421;SDS011;4248;48.196;10.924;2023-04-07T14:16:58;5.17;;;3.60;;
8421;SDS011;4248;48.196;10.924;2023-04-07T14:19:24;6.13;;;3.60;;
8421;SDS011;4248;48.196;10.924;2023-04-07T14:21:50;6.80;;;3.73;;
8421;SDS011;4248;48.196;10.924;2023-04-07T14:24:15;7.07;;;3.40;;
8421;SDS011;4248;48.196;10.924;2023-04-07T14:26:41;5.93;;;3.27;;
8421;SDS011;4248;48.196;10.924;2023-04-07T14:29:08;7.67;;;3.30;;
8421;SDS011;4248;48.196;10.924;2023-04-07T14:31:34;7.80;;;3.13;;
8421;SDS011;4248;48.196;10.924;2023-04-07T14:33:59;7.83;;;3.77;;
8421;SDS011;4248;48.196;10.924;2023-04-07T14:36:25;6.10;;;2.90;;
8421;SDS011;4248;48.196;10.924;2023-04-07T14:38:51;5.47;;;3.13;;
8421;SDS011;4248;48.196;10.924;2023-04-07T14:41:18;7.50;;;3.10;;
8421;SDS011;4248;48.196;10.924;2023-04-07T14:43:44;4.87;;;3.00;;
8421;SDS011;4248;48.196;10.924;2023-04-07T14:46:12;7.63;;;3.90;;
8421;SDS011;4248;48.196;10.924;2023-04-07T14:48:39;7.47;;;3.20;;
8421;SDS011;4248;48.196;10.924;2023-04-07T14:51:09;5.20;;;3.00;;
8421;SDS011;4248;48.196;10.924;2023-04-07T14:53:36;5.50;;;3.73;;
8421;SDS011;4248;48.196;10.924;2023-04-07T14:56:05;9.27;;;3.60;;
8421;SDS011;4248;48.196;10.924;2023-04-07T14:58:31;5.80;;;3.57;;
8421;SDS011;4248;48.196;10.924;2023-04-07T15:00:56;7.07;;;3.60;;
8421;SDS011;4248;48.196;10.924;2023-04-07T15:03:23;4.70;;;3.53;;
8421;SDS011;4248;48.196;10.924;2023-04-07T15:05:49;8.27;;;4.67;;
8421;SDS011;4248;48.196;10.924;2023-04-07T15:08:15;8.30;;;4.30;;
8421;SDS011;4248;48.196;10.924;2023-04-07T15:10:40;7.47;;;4.70;;
8421;SDS011;4248;48.196;10.924;2023-04-07T15:13:06;7.93;;;4.23;;
8421;SDS011;4248;48.196;10.924;2023-04-07T15:15:31;7.17;;;4.17;;
8421;SDS011;4248;48.196;10.924;2023-04-07T15:17:57;10.10;;;4.43;;
8421;SDS011;4248;48.196;10.924;2023-04-07T15:20:23;6.60;;;3.73;;
8421;SDS011;4248;48.196;10.924;2023-04-07T15:22:48;6.67;;;3.30;;